sensor_id;sensor_type;location;lat;lon;timestamp;pressure;altitude;pressure_sealevel;temperature;humidity
71621;BME280;59471;42.254;23.102;2023-01-31T00:01:23;95507.19;;;-0.96;75.06
71621;BME280;59471;42.254;23.102;2023-01-31T00:03:59;95497.63;;;-0.94;75.88
71621;BME280;59471;42.254;23.102;2023-01-31T00:06:37;95477.53;;;-0.78;76.13
71621;BME280;59471;42.254;23.102;2023-01-31T00:09:05;95464.75;;;-1.02;76.02
71621;BME280;59471;42.254;23.102;2023-01-31T00:11:33;95467.69;;;-0.84;74.79
71621;BME280;59471;42.254;23.102;2023-01-31T00:14:00;95464.41;;;-0.86;75.93
71621;BME280;59471;42.254;23.102;2023-01-31T00:16:27;95467.69;;;-0.61;76.03
71621;BME280;59471;42.254;23.102;2023-01-31T00:18:53;95491.78;;;-0.85;75.24
71621;BME280;59471;42.254;23.102;2023-01-31T00:21:24;95486.25;;;-1.14;77.32
71621;BME280;59471;42.254;23.102;2023-01-31T00:23:51;95485.09;;;-1.10;78.13
71621;BME280;59471;42.254;23.102;2023-01-31T00:26:33;95490.88;;;-1.30;79.20
71621;BME280;59471;42.254;23.102;2023-01-31T00:29:01;95477.41;;;-1.45;80.05
71621;BME280;59471;42.254;23.102;2023-01-31T00:31:30;95467.38;;;-1.48;79.79
71621;BME280;59471;42.254;23.102;2023-01-31T00:33:56;95465.41;;;-1.33;79.86
71621;BME280;59471;42.254;23.102;2023-01-31T00:36:28;95455.75;;;-1.07;78.90
71621;BME280;59471;42.254;23.102;2023-01-31T00:38:57;95461.13;;;-1.10;79.15
71621;BME280;59471;42.254;23.102;2023-01-31T00:41:25;95459.50;;;-1.11;79.24
71621;BME280;59471;42.254;23.102;2023-01-31T00:43:52;95477.50;;;-1.11;77.97
71621;BME280;59471;42.254;23.102;2023-01-31T00:46:18;95469.78;;;-1.11;78.92
71621;BME280;59471;42.254;23.102;2023-01-31T00:48:47;95470.00;;;-1.14;79.14
71621;BME280;59471;42.254;23.102;2023-01-31T00:51:13;95466.00;;;-1.30;79.53
71621;BME280;59471;42.254;23.102;2023-01-31T00:53:39;95464.59;;;-1.34;79.94
71621;BME280;59471;42.254;23.102;2023-01-31T00:56:07;95464.59;;;-1.34;80.07
71621;BME280;59471;42.254;23.102;2023-01-31T00:58:35;95462.72;;;-1.54;79.73
71621;BME280;59471;42.254;23.102;2023-01-31T01:01:08;95461.19;;;-1.46;80.34
71621;BME280;59471;42.254;23.102;2023-01-31T01:03:37;95450.72;;;-1.31;77.77
71621;BME280;59471;42.254;23.102;2023-01-31T01:06:05;95457.16;;;-1.26;77.86
71621;BME280;59471;42.254;23.102;2023-01-31T01:08:31;95462.31;;;-1.26;77.60
71621;BME280;59471;42.254;23.102;2023-01-31T01:11:11;95457.88;;;-1.12;76.83
71621;BME280;59471;42.254;23.102;2023-01-31T01:13:44;95445.97;;;-0.91;76.06
71621;BME280;59471;42.254;23.102;2023-01-31T01:16:13;95452.75;;;-0.90;76.33
71621;BME280;59471;42.254;23.102;2023-01-31T01:18:41;95457.53;;;-0.74;75.20
71621;BME280;59471;42.254;23.102;2023-01-31T01:21:23;95454.59;;;-0.70;73.96
71621;BME280;59471;42.254;23.102;2023-01-31T01:23:51;95454.97;;;-0.97;75.27
71621;BME280;59471;42.254;23.102;2023-01-31T01:26:22;95462.31;;;-0.81;74.68
71621;BME280;59471;42.254;23.102;2023-01-31T01:28:51;95464.66;;;-0.66;75.04
71621;BME280;59471;42.254;23.102;2023-01-31T01:31:18;95461.84;;;-0.52;74.18
71621;BME280;59471;42.254;23.102;2023-01-31T01:33:47;95456.00;;;-0.54;75.01
71621;BME280;59471;42.254;23.102;2023-01-31T01:36:16;95455.97;;;-0.43;74.89
71621;BME280;59471;42.254;23.102;2023-01-31T01:38:46;95457.56;;;-0.19;73.88
71621;BME280;59471;42.254;23.102;2023-01-31T01:41:12;95461.97;;;-0.10;73.40
71621;BME280;59471;42.254;23.102;2023-01-31T01:46:13;95477.72;;;-0.25;75.27
71621;BME280;59471;42.254;23.102;2023-01-31T01:48:44;95461.66;;;-0.17;74.36
71621;BME280;59471;42.254;23.102;2023-01-31T01:51:14;95478.91;;;-0.40;75.03
71621;BME280;59471;42.254;23.102;2023-01-31T01:53:43;95489.53;;;-0.44;75.01
71621;BME280;59471;42.254;23.102;2023-01-31T01:56:17;95485.00;;;-0.41;75.33
71621;BME280;59471;42.254;23.102;2023-01-31T01:59:00;95487.16;;;-0.14;74.60
71621;BME280;59471;42.254;23.102;2023-01-31T02:01:34;95495.16;;;-0.28;74.49
71621;BME280;59471;42.254;23.102;2023-01-31T02:04:02;95498.06;;;-0.33;74.64
71621;BME280;59471;42.254;23.102;2023-01-31T02:06:31;95490.81;;;-0.28;75.27
71621;BME280;59471;42.254;23.102;2023-01-31T02:08:56;95490.25;;;-0.31;75.41
71621;BME280;59471;42.254;23.102;2023-01-31T02:11:25;95490.38;;;-0.44;75.68
71621;BME280;59471;42.254;23.102;2023-01-31T02:14:00;95490.13;;;-0.63;76.20
71621;BME280;59471;42.254;23.102;2023-01-31T02:16:28;95487.69;;;-0.65;75.34
71621;BME280;59471;42.254;23.102;2023-01-31T02:18:54;95493.53;;;-0.52;74.65
71621;BME280;59471;42.254;23.102;2023-01-31T02:28:17;95508.25;;;-0.42;75.41
71621;BME280;59471;42.254;23.102;2023-01-31T02:37:12;95502.16;;;-0.41;75.82
71621;BME280;59471;42.254;23.102;2023-01-31T02:42:50;95526.72;;;-0.37;76.50
71621;BME280;59471;42.254;23.102;2023-01-31T02:48:41;95552.69;;;-0.18;74.95
71621;BME280;59471;42.254;23.102;2023-01-31T02:51:20;95544.38;;;-0.33;75.44
71621;BME280;59471;42.254;23.102;2023-01-31T02:56:38;95543.09;;;-0.50;76.38
71621;BME280;59471;42.254;23.102;2023-01-31T02:59:19;95555.25;;;-0.29;75.92
71621;BME280;59471;42.254;23.102;2023-01-31T03:01:58;95557.25;;;-0.44;76.42
71621;BME280;59471;42.254;23.102;2023-01-31T03:04:29;95546.97;;;-0.44;76.73
71621;BME280;59471;42.254;23.102;2023-01-31T03:07:21;95551.66;;;-0.38;76.76
71621;BME280;59471;42.254;23.102;2023-01-31T03:10:27;95552.47;;;-0.37;76.80
71621;BME280;59471;42.254;23.102;2023-01-31T03:20:37;95551.06;;;-0.19;73.33
71621;BME280;59471;42.254;23.102;2023-01-31T03:23:30;95550.91;;;-0.06;72.36
71621;BME280;59471;42.254;23.102;2023-01-31T03:25:58;95543.53;;;0.01;72.76
71621;BME280;59471;42.254;23.102;2023-01-31T03:28:31;95551.16;;;-0.20;71.23
71621;BME280;59471;42.254;23.102;2023-01-31T03:31:13;95552.66;;;0.05;67.91
71621;BME280;59471;42.254;23.102;2023-01-31T03:33:45;95558.78;;;0.25;67.23
71621;BME280;59471;42.254;23.102;2023-01-31T03:36:48;95570.13;;;0.44;65.69
71621;BME280;59471;42.254;23.102;2023-01-31T03:39:37;95575.66;;;0.29;67.65
71621;BME280;59471;42.254;23.102;2023-01-31T03:42:16;95581.25;;;0.34;67.04
71621;BME280;59471;42.254;23.102;2023-01-31T03:45:10;95583.91;;;0.43;65.09
71621;BME280;59471;42.254;23.102;2023-01-31T03:47:44;95585.25;;;0.70;59.26
71621;BME280;59471;42.254;23.102;2023-01-31T03:50:22;95594.38;;;0.74;59.85
71621;BME280;59471;42.254;23.102;2023-01-31T03:53:15;95588.59;;;0.82;59.38
71621;BME280;59471;42.254;23.102;2023-01-31T03:55:58;95605.53;;;0.63;64.75
71621;BME280;59471;42.254;23.102;2023-01-31T03:58:36;95593.38;;;0.11;70.31
71621;BME280;59471;42.254;23.102;2023-01-31T04:01:05;95605.06;;;0.15;70.34
71621;BME280;59471;42.254;23.102;2023-01-31T04:03:42;95591.47;;;0.24;70.53
71621;BME280;59471;42.254;23.102;2023-01-31T04:06:11;95607.19;;;0.10;69.95
71621;BME280;59471;42.254;23.102;2023-01-31T04:08:38;95611.72;;;0.06;70.28
71621;BME280;59471;42.254;23.102;2023-01-31T04:11:05;95619.00;;;0.01;71.38
71621;BME280;59471;42.254;23.102;2023-01-31T04:13:34;95628.25;;;0.04;70.26
71621;BME280;59471;42.254;23.102;2023-01-31T04:16:00;95643.56;;;0.16;69.77
71621;BME280;59471;42.254;23.102;2023-01-31T04:18:26;95644.75;;;0.01;69.86
71621;BME280;59471;42.254;23.102;2023-01-31T04:20:52;95632.22;;;-0.04;70.24
71621;BME280;59471;42.254;23.102;2023-01-31T04:23:17;95630.25;;;-0.11;71.79
71621;BME280;59471;42.254;23.102;2023-01-31T04:25:43;95641.47;;;-0.24;71.93
71621;BME280;59471;42.254;23.102;2023-01-31T04:28:10;95642.97;;;-0.10;71.14
71621;BME280;59471;42.254;23.102;2023-01-31T04:30:36;95636.31;;;-0.01;70.69
71621;BME280;59471;42.254;23.102;2023-01-31T04:33:01;95645.22;;;0.17;69.85
71621;BME280;59471;42.254;23.102;2023-01-31T04:35:27;95646.50;;;0.12;70.43
71621;BME280;59471;42.254;23.102;2023-01-31T04:37:52;95655.50;;;0.17;69.92
71621;BME280;59471;42.254;23.102;2023-01-31T04:40:18;95651.06;;;0.08;70.29
71621;BME280;59471;42.254;23.102;2023-01-31T04:42:43;95650.13;;;0.20;69.02
71621;BME280;59471;42.254;23.102;2023-01-31T04:45:09;95656.78;;;0.12;70.13
71621;BME280;59471;42.254;23.102;2023-01-31T04:47:35;95660.91;;;0.26;69.61
71621;BME280;59471;42.254;23.102;2023-01-31T04:50:01;95651.28;;;0.28;69.80
71621;BME280;59471;42.254;23.102;2023-01-31T04:52:26;95653.16;;;0.26;69.35
71621;BME280;59471;42.254;23.102;2023-01-31T04:54:52;95647.78;;;0.29;69.74
71621;BME280;59471;42.254;23.102;2023-01-31T04:57:17;95654.78;;;0.27;70.16
71621;BME280;59471;42.254;23.102;2023-01-31T04:59:43;95659.00;;;0.39;68.53
71621;BME280;59471;42.254;23.102;2023-01-31T05:02:08;95660.88;;;0.37;69.64
71621;BME280;59471;42.254;23.102;2023-01-31T05:04:34;95665.31;;;0.46;68.63
71621;BME280;59471;42.254;23.102;2023-01-31T05:06:59;95673.72;;;0.59;68.07
71621;BME280;59471;42.254;23.102;2023-01-31T05:09:25;95674.19;;;0.64;68.40
71621;BME280;59471;42.254;23.102;2023-01-31T05:11:51;95682.13;;;0.73;66.76
71621;BME280;59471;42.254;23.102;2023-01-31T05:14:16;95688.22;;;0.72;67.48
71621;BME280;59471;42.254;23.102;2023-01-31T05:16:45;95696.84;;;0.82;67.22
71621;BME280;59471;42.254;23.102;2023-01-31T05:19:13;95696.84;;;0.82;66.88
71621;BME280;59471;42.254;23.102;2023-01-31T05:21:39;95700.38;;;0.81;66.82
71621;BME280;59471;42.254;23.102;2023-01-31T05:24:22;95701.09;;;0.72;68.10
71621;BME280;59471;42.254;23.102;2023-01-31T05:26:53;95709.09;;;0.57;69.13
71621;BME280;59471;42.254;23.102;2023-01-31T05:29:23;95699.72;;;0.67;68.68
71621;BME280;59471;42.254;23.102;2023-01-31T05:31:53;95710.03;;;0.67;69.15
71621;BME280;59471;42.254;23.102;2023-01-31T05:34:21;95713.53;;;0.66;69.39
71621;BME280;59471;42.254;23.102;2023-01-31T05:36:48;95705.91;;;0.65;69.14
71621;BME280;59471;42.254;23.102;2023-01-31T05:39:14;95708.88;;;0.60;68.93
71621;BME280;59471;42.254;23.102;2023-01-31T05:41:39;95701.13;;;0.60;69.64
71621;BME280;59471;42.254;23.102;2023-01-31T05:44:05;95715.75;;;0.71;69.16
71621;BME280;59471;42.254;23.102;2023-01-31T05:46:30;95709.53;;;0.74;68.77
71621;BME280;59471;42.254;23.102;2023-01-31T05:48:56;95699.56;;;0.69;70.02
71621;BME280;59471;42.254;23.102;2023-01-31T05:51:21;95704.88;;;0.67;69.17
71621;BME280;59471;42.254;23.102;2023-01-31T05:53:47;95713.75;;;0.86;67.12
71621;BME280;59471;42.254;23.102;2023-01-31T05:56:13;95698.41;;;0.73;68.45
71621;BME280;59471;42.254;23.102;2023-01-31T05:58:40;95708.22;;;0.90;66.96
71621;BME280;59471;42.254;23.102;2023-01-31T06:01:06;95706.34;;;0.81;68.15
71621;BME280;59471;42.254;23.102;2023-01-31T06:03:32;95702.25;;;0.79;68.86
71621;BME280;59471;42.254;23.102;2023-01-31T06:05:58;95705.75;;;0.89;67.55
71621;BME280;59471;42.254;23.102;2023-01-31T06:08:23;95710.88;;;1.00;65.90
71621;BME280;59471;42.254;23.102;2023-01-31T06:10:49;95697.78;;;0.92;66.72
71621;BME280;59471;42.254;23.102;2023-01-31T06:13:14;95695.88;;;0.94;67.48
71621;BME280;59471;42.254;23.102;2023-01-31T06:15:43;95700.56;;;1.00;66.71
71621;BME280;59471;42.254;23.102;2023-01-31T06:18:09;95703.59;;;1.05;67.03
71621;BME280;59471;42.254;23.102;2023-01-31T06:20:35;95700.81;;;0.97;66.25
71621;BME280;59471;42.254;23.102;2023-01-31T06:23:03;95709.22;;;1.10;65.79
71621;BME280;59471;42.254;23.102;2023-01-31T06:25:29;95703.03;;;1.02;67.32
71621;BME280;59471;42.254;23.102;2023-01-31T06:27:55;95708.09;;;0.92;67.76
71621;BME280;59471;42.254;23.102;2023-01-31T06:30:21;95702.06;;;1.14;66.29
71621;BME280;59471;42.254;23.102;2023-01-31T06:32:46;95695.31;;;1.23;65.12
71621;BME280;59471;42.254;23.102;2023-01-31T06:35:12;95701.59;;;1.09;66.14
71621;BME280;59471;42.254;23.102;2023-01-31T06:37:38;95698.38;;;1.16;66.14
71621;BME280;59471;42.254;23.102;2023-01-31T06:40:03;95693.22;;;1.16;65.94
71621;BME280;59471;42.254;23.102;2023-01-31T06:42:29;95696.97;;;1.24;64.87
71621;BME280;59471;42.254;23.102;2023-01-31T06:44:55;95684.09;;;1.12;65.28
71621;BME280;59471;42.254;23.102;2023-01-31T06:47:20;95672.59;;;1.16;65.87
71621;BME280;59471;42.254;23.102;2023-01-31T06:49:46;95681.41;;;1.14;67.96
71621;BME280;59471;42.254;23.102;2023-01-31T06:52:11;95680.28;;;1.28;65.14
71621;BME280;59471;42.254;23.102;2023-01-31T06:54:37;95685.00;;;1.23;65.29
71621;BME280;59471;42.254;23.102;2023-01-31T06:57:03;95690.38;;;1.31;66.06
71621;BME280;59471;42.254;23.102;2023-01-31T06:59:28;95693.59;;;1.44;63.47
71621;BME280;59471;42.254;23.102;2023-01-31T07:01:54;95692.91;;;1.42;64.11
71621;BME280;59471;42.254;23.102;2023-01-31T07:04:19;95693.34;;;1.26;65.91
71621;BME280;59471;42.254;23.102;2023-01-31T07:06:45;95698.50;;;1.47;64.15
71621;BME280;59471;42.254;23.102;2023-01-31T07:09:10;95694.66;;;1.42;64.64
71621;BME280;59471;42.254;23.102;2023-01-31T07:11:37;95701.53;;;1.52;64.17
71621;BME280;59471;42.254;23.102;2023-01-31T07:14:03;95688.56;;;1.43;64.83
71621;BME280;59471;42.254;23.102;2023-01-31T07:16:29;95692.84;;;1.53;64.06
71621;BME280;59471;42.254;23.102;2023-01-31T07:18:55;95704.53;;;1.57;63.51
71621;BME280;59471;42.254;23.102;2023-01-31T07:21:22;95705.75;;;1.53;63.57
71621;BME280;59471;42.254;23.102;2023-01-31T07:23:48;95702.47;;;1.51;64.00
71621;BME280;59471;42.254;23.102;2023-01-31T07:26:14;95693.78;;;1.52;62.95
71621;BME280;59471;42.254;23.102;2023-01-31T07:28:40;95704.44;;;1.59;63.46
71621;BME280;59471;42.254;23.102;2023-01-31T07:31:08;95702.06;;;1.67;63.17
71621;BME280;59471;42.254;23.102;2023-01-31T07:33:37;95695.81;;;1.49;62.70
71621;BME280;59471;42.254;23.102;2023-01-31T07:36:03;95715.38;;;1.51;63.00
71621;BME280;59471;42.254;23.102;2023-01-31T07:38:30;95714.13;;;1.67;62.33
71621;BME280;59471;42.254;23.102;2023-01-31T07:41:00;95717.59;;;1.56;63.50
71621;BME280;59471;42.254;23.102;2023-01-31T07:43:27;95707.81;;;1.59;63.31
71621;BME280;59471;42.254;23.102;2023-01-31T07:45:54;95710.91;;;1.53;64.42
71621;BME280;59471;42.254;23.102;2023-01-31T07:48:19;95706.69;;;1.52;65.17
71621;BME280;59471;42.254;23.102;2023-01-31T07:51:05;95697.13;;;1.43;65.97
71621;BME280;59471;42.254;23.102;2023-01-31T07:53:34;95700.41;;;1.45;66.12
71621;BME280;59471;42.254;23.102;2023-01-31T07:56:11;95703.66;;;1.47;66.19
71621;BME280;59471;42.254;23.102;2023-01-31T07:58:42;95710.53;;;1.58;66.04
71621;BME280;59471;42.254;23.102;2023-01-31T08:01:16;95712.09;;;1.49;66.56
71621;BME280;59471;42.254;23.102;2023-01-31T08:04:10;95696.53;;;1.60;65.85
71621;BME280;59471;42.254;23.102;2023-01-31T08:06:38;95703.78;;;1.67;65.14
71621;BME280;59471;42.254;23.102;2023-01-31T08:09:04;95705.69;;;1.65;64.76
71621;BME280;59471;42.254;23.102;2023-01-31T08:11:30;95705.56;;;1.45;66.15
71621;BME280;59471;42.254;23.102;2023-01-31T08:13:56;95707.44;;;1.43;66.19
71621;BME280;59471;42.254;23.102;2023-01-31T08:16:21;95707.50;;;1.53;65.87
71621;BME280;59471;42.254;23.102;2023-01-31T08:18:47;95717.34;;;1.59;66.59
71621;BME280;59471;42.254;23.102;2023-01-31T08:21:13;95711.22;;;1.60;67.51
71621;BME280;59471;42.254;23.102;2023-01-31T08:23:40;95708.88;;;1.57;66.54
71621;BME280;59471;42.254;23.102;2023-01-31T08:26:09;95721.94;;;1.55;67.39
71621;BME280;59471;42.254;23.102;2023-01-31T08:28:37;95725.19;;;1.57;68.18
71621;BME280;59471;42.254;23.102;2023-01-31T08:31:04;95722.09;;;1.63;68.25
71621;BME280;59471;42.254;23.102;2023-01-31T08:33:30;95721.91;;;1.76;68.52
71621;BME280;59471;42.254;23.102;2023-01-31T08:35:55;95720.38;;;1.64;68.96
71621;BME280;59471;42.254;23.102;2023-01-31T08:38:21;95724.19;;;1.70;68.46
71621;BME280;59471;42.254;23.102;2023-01-31T08:40:47;95726.91;;;1.68;69.09
71621;BME280;59471;42.254;23.102;2023-01-31T08:43:14;95727.19;;;1.86;68.87
71621;BME280;59471;42.254;23.102;2023-01-31T08:45:40;95732.06;;;1.68;70.12
71621;BME280;59471;42.254;23.102;2023-01-31T08:48:05;95738.00;;;1.80;69.69
71621;BME280;59471;42.254;23.102;2023-01-31T08:50:31;95742.50;;;1.67;70.93
71621;BME280;59471;42.254;23.102;2023-01-31T08:52:59;95745.66;;;1.70;70.32
71621;BME280;59471;42.254;23.102;2023-01-31T08:55:27;95739.19;;;1.76;69.94
71621;BME280;59471;42.254;23.102;2023-01-31T08:57:54;95731.94;;;1.70;70.72
71621;BME280;59471;42.254;23.102;2023-01-31T09:00:20;95736.19;;;1.71;71.45
71621;BME280;59471;42.254;23.102;2023-01-31T09:02:54;95731.38;;;1.87;71.27
71621;BME280;59471;42.254;23.102;2023-01-31T09:05:20;95731.81;;;1.92;71.04
71621;BME280;59471;42.254;23.102;2023-01-31T09:07:46;95738.78;;;2.01;71.19
71621;BME280;59471;42.254;23.102;2023-01-31T09:10:12;95737.47;;;2.07;71.19
71621;BME280;59471;42.254;23.102;2023-01-31T09:12:37;95727.19;;;1.86;71.05
71621;BME280;59471;42.254;23.102;2023-01-31T09:15:04;95728.09;;;1.85;71.04
71621;BME280;59471;42.254;23.102;2023-01-31T09:17:30;95735.09;;;1.94;70.39
71621;BME280;59471;42.254;23.102;2023-01-31T09:19:56;95738.13;;;1.99;69.27
71621;BME280;59471;42.254;23.102;2023-01-31T09:22:22;95732.44;;;2.05;69.38
71621;BME280;59471;42.254;23.102;2023-01-31T09:24:48;95728.69;;;2.19;69.33
71621;BME280;59471;42.254;23.102;2023-01-31T09:27:13;95734.31;;;2.24;69.40
71621;BME280;59471;42.254;23.102;2023-01-31T09:29:39;95739.03;;;1.98;68.60
71621;BME280;59471;42.254;23.102;2023-01-31T09:32:05;95733.13;;;2.07;69.64
71621;BME280;59471;42.254;23.102;2023-01-31T09:34:31;95728.34;;;2.24;69.36
71621;BME280;59471;42.254;23.102;2023-01-31T09:36:57;95720.75;;;2.32;68.74
71621;BME280;59471;42.254;23.102;2023-01-31T09:39:23;95721.03;;;2.39;68.91
71621;BME280;59471;42.254;23.102;2023-01-31T09:44:38;95707.53;;;2.66;67.94
71621;BME280;59471;42.254;23.102;2023-01-31T09:47:20;95707.97;;;2.81;66.05
71621;BME280;59471;42.254;23.102;2023-01-31T09:49:56;95700.44;;;2.68;66.97
71621;BME280;59471;42.254;23.102;2023-01-31T09:52:24;95702.66;;;2.72;66.27
71621;BME280;59471;42.254;23.102;2023-01-31T09:54:52;95695.00;;;2.71;66.68
71621;BME280;59471;42.254;23.102;2023-01-31T10:00:39;95680.09;;;2.84;64.07
71621;BME280;59471;42.254;23.102;2023-01-31T10:03:36;95678.59;;;2.82;64.83
71621;BME280;59471;42.254;23.102;2023-01-31T10:06:10;95681.72;;;2.85;65.50
71621;BME280;59471;42.254;23.102;2023-01-31T10:09:02;95670.66;;;2.73;65.74
71621;BME280;59471;42.254;23.102;2023-01-31T10:11:39;95668.63;;;2.87;64.79
71621;BME280;59471;42.254;23.102;2023-01-31T10:16:41;95664.97;;;2.89;64.64
71621;BME280;59471;42.254;23.102;2023-01-31T10:20:17;95664.97;;;2.89;64.06
71621;BME280;59471;42.254;23.102;2023-01-31T10:22:41;95658.28;;;2.77;64.41
71621;BME280;59471;42.254;23.102;2023-01-31T10:25:31;95666.47;;;3.01;63.16
71621;BME280;59471;42.254;23.102;2023-01-31T10:28:14;95656.41;;;2.89;63.51
71621;BME280;59471;42.254;23.102;2023-01-31T10:31:01;95656.13;;;2.82;63.11
71621;BME280;59471;42.254;23.102;2023-01-31T10:33:52;95647.63;;;2.61;64.77
71621;BME280;59471;42.254;23.102;2023-01-31T10:39:18;95651.59;;;2.65;64.67
71621;BME280;59471;42.254;23.102;2023-01-31T10:44:39;95652.50;;;2.44;65.03
71621;BME280;59471;42.254;23.102;2023-01-31T10:47:14;95640.69;;;2.51;64.39
71621;BME280;59471;42.254;23.102;2023-01-31T10:49:46;95647.06;;;2.47;64.62
71621;BME280;59471;42.254;23.102;2023-01-31T10:55:25;95653.88;;;2.48;65.06
71621;BME280;59471;42.254;23.102;2023-01-31T10:58:03;95649.22;;;2.42;65.12
71621;BME280;59471;42.254;23.102;2023-01-31T11:00:31;95646.63;;;2.42;64.74
71621;BME280;59471;42.254;23.102;2023-01-31T11:02:57;95643.78;;;2.45;65.53
71621;BME280;59471;42.254;23.102;2023-01-31T11:05:25;95643.13;;;2.43;65.39
71621;BME280;59471;42.254;23.102;2023-01-31T11:07:55;95645.72;;;2.43;65.63
71621;BME280;59471;42.254;23.102;2023-01-31T11:10:27;95640.53;;;2.43;65.24
71621;BME280;59471;42.254;23.102;2023-01-31T11:12:59;95645.06;;;2.61;65.37
71621;BME280;59471;42.254;23.102;2023-01-31T11:15:34;95635.97;;;2.76;65.15
71621;BME280;59471;42.254;23.102;2023-01-31T11:18:04;95638.97;;;2.81;64.90
71621;BME280;59471;42.254;23.102;2023-01-31T11:20:33;95644.94;;;2.72;65.54
71621;BME280;59471;42.254;23.102;2023-01-31T11:23:02;95646.56;;;2.73;65.29
71621;BME280;59471;42.254;23.102;2023-01-31T11:25:31;95642.19;;;2.54;65.56
71621;BME280;59471;42.254;23.102;2023-01-31T11:28:00;95651.88;;;2.62;66.15
71621;BME280;59471;42.254;23.102;2023-01-31T11:30:34;95647.38;;;2.64;66.43
71621;BME280;59471;42.254;23.102;2023-01-31T11:33:00;95650.66;;;2.66;66.04
71621;BME280;59471;42.254;23.102;2023-01-31T11:35:30;95656.91;;;2.63;65.78
71621;BME280;59471;42.254;23.102;2023-01-31T11:38:08;95657.72;;;2.64;65.84
71621;BME280;59471;42.254;23.102;2023-01-31T11:40:46;95657.06;;;2.62;66.47
71621;BME280;59471;42.254;23.102;2023-01-31T11:45:42;95651.97;;;2.50;67.80
71621;BME280;59471;42.254;23.102;2023-01-31T11:48:18;95654.38;;;2.42;68.90
71621;BME280;59471;42.254;23.102;2023-01-31T11:50:53;95648.66;;;2.39;70.29
71621;BME280;59471;42.254;23.102;2023-01-31T11:56:19;95657.75;;;2.33;71.73
71621;BME280;59471;42.254;23.102;2023-01-31T11:58:51;95651.41;;;2.37;70.88
71621;BME280;59471;42.254;23.102;2023-01-31T12:01:20;95648.97;;;2.45;69.64
71621;BME280;59471;42.254;23.102;2023-01-31T12:03:50;95645.97;;;2.40;70.36
71621;BME280;59471;42.254;23.102;2023-01-31T12:06:36;95646.28;;;2.57;70.00
71621;BME280;59471;42.254;23.102;2023-01-31T12:09:18;95641.91;;;2.47;70.27
71621;BME280;59471;42.254;23.102;2023-01-31T12:11:52;95650.63;;;2.56;70.53
71621;BME280;59471;42.254;23.102;2023-01-31T12:14:20;95647.84;;;2.38;71.83
71621;BME280;59471;42.254;23.102;2023-01-31T12:16:47;95640.00;;;2.49;71.26
71621;BME280;59471;42.254;23.102;2023-01-31T12:19:22;95649.22;;;2.42;72.58
71621;BME280;59471;42.254;23.102;2023-01-31T12:22:10;95647.59;;;2.41;71.71
71621;BME280;59471;42.254;23.102;2023-01-31T12:24:51;95646.38;;;2.45;72.57
71621;BME280;59471;42.254;23.102;2023-01-31T12:27:54;95640.94;;;2.48;72.00
71621;BME280;59471;42.254;23.102;2023-01-31T12:33:23;95637.81;;;2.54;72.21
71621;BME280;59471;42.254;23.102;2023-01-31T12:36:13;95640.53;;;2.43;71.53
71621;BME280;59471;42.254;23.102;2023-01-31T12:38:50;95644.91;;;2.43;72.00
71621;BME280;59471;42.254;23.102;2023-01-31T12:57:54;95642.22;;;2.23;74.09
71621;BME280;59471;42.254;23.102;2023-01-31T13:03:37;95636.09;;;2.15;74.65
71621;BME280;59471;42.254;23.102;2023-01-31T13:06:18;95636.34;;;2.12;74.23
71621;BME280;59471;42.254;23.102;2023-01-31T13:09:01;95633.66;;;2.23;73.23
71621;BME280;59471;42.254;23.102;2023-01-31T13:11:37;95642.34;;;2.12;74.46
71621;BME280;59471;42.254;23.102;2023-01-31T13:14:10;95622.91;;;2.18;73.47
71621;BME280;59471;42.254;23.102;2023-01-31T13:16:42;95631.25;;;2.31;72.75
71621;BME280;59471;42.254;23.102;2023-01-31T13:19:15;95631.84;;;2.14;72.45
71621;BME280;59471;42.254;23.102;2023-01-31T13:21:49;95620.13;;;2.40;72.05
71621;BME280;59471;42.254;23.102;2023-01-31T13:24:21;95628.22;;;2.26;71.63
71621;BME280;59471;42.254;23.102;2023-01-31T13:26:55;95631.81;;;2.35;70.69
71621;BME280;59471;42.254;23.102;2023-01-31T13:29:36;95633.44;;;2.36;70.62
71621;BME280;59471;42.254;23.102;2023-01-31T13:32:19;95637.19;;;2.22;71.36
71621;BME280;59471;42.254;23.102;2023-01-31T13:34:55;95644.84;;;2.33;71.00
71621;BME280;59471;42.254;23.102;2023-01-31T13:37:23;95652.66;;;2.43;71.15
71621;BME280;59471;42.254;23.102;2023-01-31T13:40:00;95646.53;;;2.53;71.34
71621;BME280;59471;42.254;23.102;2023-01-31T13:42:29;95650.91;;;2.63;71.38
71621;BME280;59471;42.254;23.102;2023-01-31T13:44:55;95648.19;;;2.64;71.22
71621;BME280;59471;42.254;23.102;2023-01-31T13:47:29;95655.44;;;2.80;70.89
71621;BME280;59471;42.254;23.102;2023-01-31T13:50:38;95649.88;;;2.94;70.22
71621;BME280;59471;42.254;23.102;2023-01-31T13:53:14;95648.44;;;2.51;70.08
71621;BME280;59471;42.254;23.102;2023-01-31T13:55:45;95657.97;;;2.61;69.36
71621;BME280;59471;42.254;23.102;2023-01-31T13:58:18;95658.78;;;2.51;66.11
71621;BME280;59471;42.254;23.102;2023-01-31T14:01:00;95659.59;;;2.52;64.28
71621;BME280;59471;42.254;23.102;2023-01-31T14:03:28;95651.97;;;2.50;63.93
71621;BME280;59471;42.254;23.102;2023-01-31T14:05:59;95659.31;;;2.55;65.25
71621;BME280;59471;42.254;23.102;2023-01-31T14:08:41;95672.66;;;2.50;65.01
71621;BME280;59471;42.254;23.102;2023-01-31T14:22:18;95679.50;;;2.71;64.68
71621;BME280;59471;42.254;23.102;2023-01-31T14:30:35;95678.97;;;2.77;63.59
71621;BME280;59471;42.254;23.102;2023-01-31T14:42:09;95684.94;;;2.68;63.79
71621;BME280;59471;42.254;23.102;2023-01-31T14:44:40;95691.50;;;2.72;62.50
71621;BME280;59471;42.254;23.102;2023-01-31T14:50:02;95695.00;;;2.71;63.32
71621;BME280;59471;42.254;23.102;2023-01-31T14:59:03;95709.41;;;2.64;64.16
71621;BME280;59471;42.254;23.102;2023-01-31T15:01:35;95708.31;;;2.57;64.43
71621;BME280;59471;42.254;23.102;2023-01-31T15:04:03;95707.25;;;2.59;63.38
71621;BME280;59471;42.254;23.102;2023-01-31T15:06:35;95710.78;;;2.68;62.31
71621;BME280;59471;42.254;23.102;2023-01-31T15:11:54;95725.34;;;2.59;62.45
71621;BME280;59471;42.254;23.102;2023-01-31T15:14:41;95732.69;;;2.64;60.91